This is the latest recevied weather packets stored in our database for station/object IU2EVW-3. If no packets are shown the sender has not sent any weather packets the latest 1 day(s).
| Time | Temp. | Humidity | Pressure | Rain* | Wind** | Luminosity | Snow |
|---|---|---|---|---|---|---|---|
| 1778078415 | 19.44° C | 63% | 1006.8 hPa | - | - | - | - |
| 1778077214 | 20° C | 64% | 1006.9 hPa | - | - | - | - |
| 1778071208 | 18.89° C | 67% | 1008 hPa | - | - | - | - |
| 1778062800 | 16.67° C | 75% | 1009.2 hPa | - | - | - | - |
| 1778059196 | 15.56° C | 82% | 1009.2 hPa | - | - | - | - |
| 1778057995 | 15° C | 84% | 1009.3 hPa | - | - | - | - |
| 1778053190 | 12.78° C | 91% | 1009.6 hPa | - | - | - | - |
| 1778051989 | 13.33° C | 90% | 1009.4 hPa | - | - | - | - |
| 1778047184 | 12.78° C | 95% | 1010 hPa | - | - | - | - |
| 1778045983 | 12.22° C | 97% | 1010 hPa | - | - | - | - |
| 1778044782 | 12.22° C | 98% | 1009.8 hPa | - | - | - | - |
| 1778043580 | 12.22° C | 99% | 1010.1 hPa | - | - | - | - |
| 1778042379 | 12.22° C | 99% | 1010.4 hPa | - | - | - | - |
| 1778041178 | 12.22° C | 99% | 1010.7 hPa | - | - | - | - |
| 1778039977 | 12.22° C | 99% | 1010.7 hPa | - | - | - | - |
| 1778038776 | 12.22° C | 99% | 1010.8 hPa | - | - | - | - |
| 1778036373 | 12.22° C | 97% | 1010.8 hPa | - | - | - | - |
| 1778035172 | 12.22° C | 97% | 1011.5 hPa | - | - | - | - |
| 1778033971 | 12.22° C | 97% | 1011.6 hPa | - | - | - | - |
| 1778031568 | 12.22° C | 96% | 1011.7 hPa | - | - | - | - |
| 1778030367 | 12.22° C | 96% | 1011.8 hPa | - | - | - | - |
| 1778029166 | 12.22° C | 95% | 1011.7 hPa | - | - | - | - |
| 1778023160 | 12.78° C | 94% | 1012.9 hPa | - | - | - | - |
| 1778015953 | 12.78° C | 95% | 1013.6 hPa | - | - | - | - |
| 1778003941 | 13.33° C | 90% | 1013.3 hPa | - | - | - | - |
* Rain since midnight (hover to see other rain measurements)
** Current wind speed in m/s (hover to see current wind gust speed)